createdAt,value
2018-09-13T00:00:03.861Z,412.00
2018-09-13T00:01:57.156Z,416.00
2018-09-13T00:02:56.868Z,424.00
2018-09-13T00:04:49.843Z,436.00
2018-09-13T00:05:49.887Z,452.00
2018-09-13T00:07:43.026Z,472.00
2018-09-13T00:08:42.859Z,480.00
2018-09-13T00:10:35.852Z,496.00
2018-09-13T00:11:35.857Z,512.00
2018-09-13T00:13:29.096Z,524.00
2018-09-13T00:14:28.849Z,528.00
2018-09-13T00:16:21.804Z,508.00
2018-09-13T00:17:21.837Z,508.00
2018-09-13T00:19:14.938Z,520.00
2018-09-13T00:20:14.838Z,532.00
2018-09-13T00:22:07.806Z,576.00
2018-09-13T00:23:07.833Z,600.00
2018-09-13T00:25:01.072Z,632.00
2018-09-13T00:26:00.867Z,640.00
2018-09-13T00:27:53.816Z,656.00
2018-09-13T00:28:53.814Z,660.00
2018-09-13T00:30:46.934Z,680.00
2018-09-13T00:31:46.827Z,680.00
2018-09-13T00:33:39.827Z,676.00
2018-09-13T00:34:39.842Z,676.00
2018-09-13T00:36:32.919Z,692.00
2018-09-13T00:37:32.844Z,704.00
2018-09-13T00:39:25.839Z,748.00
2018-09-13T00:40:25.847Z,772.00
2018-09-13T00:42:18.948Z,800.00
2018-09-13T00:43:18.834Z,820.00
2018-09-13T00:45:11.816Z,828.00
2018-09-13T00:46:11.844Z,828.00
2018-09-13T00:48:05.184Z,848.00
2018-09-13T00:49:04.829Z,856.00
2018-09-13T00:50:57.811Z,856.00
2018-09-13T00:51:57.825Z,848.00
2018-09-13T00:53:51.180Z,844.00
2018-09-13T00:54:50.820Z,856.00
2018-09-13T00:56:43.826Z,864.00
2018-09-13T00:57:43.814Z,864.00
2018-09-13T00:59:37.055Z,852.00
2018-09-13T01:00:36.815Z,836.00
2018-09-13T01:02:29.796Z,824.00
2018-09-13T01:03:29.828Z,820.00
2018-09-13T01:05:22.905Z,836.00
2018-09-13T01:06:22.795Z,844.00
2018-09-13T01:08:15.789Z,864.00
2018-09-13T01:09:15.818Z,872.00
2018-09-13T01:11:08.916Z,888.00
2018-09-13T01:12:08.823Z,892.00
2018-09-13T01:14:01.785Z,900.00
2018-09-13T01:15:01.805Z,908.00
2018-09-13T01:16:54.936Z,928.00
2018-09-13T01:17:54.815Z,932.00
2018-09-13T01:19:47.785Z,944.00
2018-09-13T01:20:47.801Z,952.00
2018-09-13T01:22:40.839Z,956.00
2018-09-13T01:23:40.799Z,956.00
2018-09-13T01:25:33.791Z,960.00
2018-09-13T01:26:33.792Z,960.00
2018-09-13T01:28:26.987Z,956.00
2018-09-13T01:29:26.788Z,948.00
2018-09-13T01:31:19.781Z,936.00
2018-09-13T01:32:19.798Z,940.00
2018-09-13T01:34:12.890Z,932.00
2018-09-13T01:35:12.796Z,936.00
2018-09-13T01:37:05.761Z,940.00
2018-09-13T01:38:05.781Z,940.00
2018-09-13T01:39:58.892Z,932.00
2018-09-13T01:40:58.790Z,924.00
2018-09-13T01:42:51.748Z,924.00
2018-09-13T01:43:51.762Z,916.00
2018-09-13T01:45:45.026Z,896.00
2018-09-13T01:46:44.791Z,900.00
2018-09-13T01:48:37.765Z,904.00
2018-09-13T01:49:37.785Z,920.00
2018-09-13T01:51:31.016Z,920.00
2018-09-13T01:52:30.760Z,924.00
2018-09-13T01:54:23.751Z,928.00
2018-09-13T01:55:23.765Z,924.00
2018-09-13T01:57:16.866Z,924.00
2018-09-13T01:58:16.761Z,936.00
2018-09-13T02:00:09.743Z,924.00
2018-09-13T02:01:09.770Z,924.00
2018-09-13T02:03:03.018Z,920.00
2018-09-13T02:04:02.745Z,924.00
2018-09-13T02:05:57.769Z,964.00
2018-09-13T02:06:57.788Z,964.00
2018-09-13T02:07:57.822Z,976.00
2018-09-13T02:08:57.830Z,1000.00
2018-09-13T02:09:57.868Z,1008.00
2018-09-13T02:10:57.891Z,1012.00
2018-09-13T02:11:57.897Z,1008.00
2018-09-13T02:12:57.919Z,1008.00
2018-09-13T02:13:57.940Z,1004.00
2018-09-13T02:14:57.963Z,1004.00
2018-09-13T02:15:58.001Z,1004.00
2018-09-13T02:16:58.009Z,1012.00
2018-09-13T02:17:58.034Z,1016.00
2018-09-13T02:18:58.069Z,996.00
2018-09-13T02:19:58.120Z,976.00
2018-09-13T02:20:58.101Z,952.00
2018-09-13T02:21:58.117Z,936.00
2018-09-13T02:22:58.144Z,924.00
2018-09-13T02:23:58.167Z,916.00
2018-09-13T02:24:58.198Z,916.00
2018-09-13T02:25:58.219Z,912.00
2018-09-13T02:26:58.248Z,908.00
2018-09-13T02:27:58.244Z,916.00
2018-09-13T02:28:58.293Z,908.00
2018-09-13T02:29:58.305Z,908.00
2018-09-13T02:30:58.333Z,900.00
2018-09-13T02:31:58.369Z,904.00
2018-09-13T02:32:58.357Z,896.00
2018-09-13T02:33:58.404Z,900.00
2018-09-13T02:34:58.413Z,904.00
2018-09-13T02:35:58.434Z,908.00
2018-09-13T02:36:58.457Z,920.00
2018-09-13T02:37:58.496Z,936.00
2018-09-13T02:38:58.516Z,960.00
2018-09-13T02:39:58.526Z,984.00
2018-09-13T02:40:58.571Z,1016.00
2018-09-13T02:41:58.605Z,1064.00
2018-09-13T02:42:58.604Z,1100.00
2018-09-13T02:43:58.607Z,1128.00
2018-09-13T02:44:58.654Z,1140.00
2018-09-13T02:45:58.660Z,1168.00
2018-09-13T02:46:58.683Z,1204.00
2018-09-13T02:47:58.716Z,1240.00
2018-09-13T02:48:58.763Z,1292.00
2018-09-13T02:49:58.810Z,1328.00
2018-09-13T02:50:58.787Z,1360.00
2018-09-13T02:51:58.795Z,1388.00
2018-09-13T02:52:58.820Z,1424.00
2018-09-13T02:53:58.839Z,1444.00
2018-09-13T02:54:58.851Z,1476.00
2018-09-13T02:55:58.890Z,1496.00
2018-09-13T02:56:58.898Z,1524.00
2018-09-13T02:57:58.941Z,1564.00
2018-09-13T02:58:58.969Z,1604.00
2018-09-13T02:59:58.977Z,1604.00
2018-09-13T03:00:59.016Z,1640.00
2018-09-13T03:01:59.032Z,1684.00
2018-09-13T03:02:59.057Z,1696.00
2018-09-13T03:03:59.071Z,1680.00
2018-09-13T03:04:59.079Z,1664.00
2018-09-13T03:05:59.115Z,1580.00
2018-09-13T03:06:59.137Z,1520.00
2018-09-13T03:07:59.170Z,1412.00
2018-09-13T03:08:59.198Z,1384.00
2018-09-13T03:09:59.229Z,1312.00
2018-09-13T03:10:59.254Z,1308.00
2018-09-13T03:11:59.253Z,1328.00
2018-09-13T03:13:00.265Z,1356.00
2018-09-13T03:13:59.326Z,1400.00
2018-09-13T03:14:59.337Z,1424.00
2018-09-13T03:15:59.362Z,1420.00
2018-09-13T03:16:59.356Z,1436.00
2018-09-13T03:17:59.405Z,1436.00
2018-09-13T03:18:59.430Z,1436.00
2018-09-13T03:19:59.426Z,1436.00
2018-09-13T03:20:59.475Z,1428.00
2018-09-13T03:21:59.533Z,1468.00
2018-09-13T03:22:59.510Z,1464.00
2018-09-13T03:23:59.546Z,1460.00
2018-09-13T03:24:59.573Z,1452.00
2018-09-13T03:25:59.605Z,1428.00
2018-09-13T03:26:59.613Z,1456.00
2018-09-13T03:27:59.639Z,1452.00
2018-09-13T03:28:59.648Z,1476.00
2018-09-13T03:29:59.714Z,1492.00
2018-09-13T03:30:59.693Z,1440.00
2018-09-13T03:31:59.716Z,1416.00
2018-09-13T03:32:59.757Z,1440.00
2018-09-13T03:33:59.750Z,1440.00
2018-09-13T03:34:59.788Z,1536.00
2018-09-13T03:35:59.826Z,1524.00
2018-09-13T03:36:59.848Z,1492.00
2018-09-13T03:37:59.864Z,1472.00
2018-09-13T03:38:59.880Z,1484.00
2018-09-13T03:39:59.907Z,1476.00
2018-09-13T03:40:59.916Z,1536.00
2018-09-13T03:42:00.015Z,1552.00
2018-09-13T03:42:59.989Z,1568.00
2018-09-13T03:44:00.078Z,1560.00
2018-09-13T03:45:00.020Z,1492.00
2018-09-13T03:46:00.042Z,1444.00
2018-09-13T03:47:00.052Z,1452.00
2018-09-13T03:48:00.078Z,1528.00
2018-09-13T03:49:00.113Z,1600.00
2018-09-13T03:50:00.134Z,1636.00
2018-09-13T03:51:00.146Z,1652.00
2018-09-13T03:52:00.182Z,1640.00
2018-09-13T03:53:00.204Z,1644.00
2018-09-13T03:54:00.228Z,1656.00
2018-09-13T03:55:00.250Z,1664.00
2018-09-13T03:56:00.261Z,1664.00
2018-09-13T03:57:00.298Z,1640.00
2018-09-13T03:58:00.321Z,1636.00
2018-09-13T03:59:00.406Z,1640.00
2018-09-13T04:00:00.369Z,1640.00
2018-09-13T04:01:00.404Z,1652.00
2018-09-13T04:02:00.427Z,1660.00
2018-09-13T04:03:00.447Z,1652.00
2018-09-13T04:04:00.461Z,1680.00
2018-09-13T04:05:00.488Z,1668.00
2018-09-13T04:06:00.613Z,1704.00
2018-09-13T04:07:00.530Z,1692.00
2018-09-13T04:08:00.557Z,1692.00
2018-09-13T04:09:00.595Z,1692.00
2018-09-13T04:10:00.610Z,1700.00
2018-09-13T04:11:00.635Z,1736.00
2018-09-13T04:12:00.647Z,1692.00
2018-09-13T04:13:00.679Z,1712.00
2018-09-13T04:14:00.709Z,1732.00
2018-09-13T04:15:00.715Z,1744.00
2018-09-13T04:16:00.815Z,1772.00
2018-09-13T04:17:00.766Z,1796.00
2018-09-13T04:18:00.801Z,1788.00
2018-09-13T04:19:00.828Z,1788.00
2018-09-13T04:20:00.835Z,1788.00
2018-09-13T04:21:00.859Z,1788.00
2018-09-13T04:22:00.881Z,1792.00
2018-09-13T04:23:00.922Z,1792.00
2018-09-13T04:24:00.940Z,1792.00
2018-09-13T04:25:00.959Z,1808.00
2018-09-13T04:26:00.987Z,1788.00
2018-09-13T04:27:01.014Z,1784.00
2018-09-13T04:28:01.011Z,1772.00
2018-09-13T04:29:01.047Z,1816.00
2018-09-13T04:30:01.083Z,1796.00
2018-09-13T04:31:01.107Z,1824.00
2018-09-13T04:32:01.120Z,1868.00
2018-09-13T04:33:01.144Z,1900.00
2018-09-13T04:34:01.177Z,1900.00
2018-09-13T04:35:01.204Z,1908.00
2018-09-13T04:36:01.299Z,1920.00
2018-09-13T04:37:01.243Z,1936.00
2018-09-13T04:38:01.256Z,1948.00
2018-09-13T04:39:01.292Z,1948.00
2018-09-13T04:40:01.322Z,1948.00
2018-09-13T04:41:01.357Z,1928.00
2018-09-13T04:42:01.368Z,1956.00
2018-09-13T04:43:01.391Z,1988.00
2018-09-13T04:44:01.389Z,2012.00
2018-09-13T04:45:01.426Z,1972.00
2018-09-13T04:46:01.465Z,2024.00
2018-09-13T04:47:01.459Z,2004.00
2018-09-13T04:48:01.496Z,1984.00
2018-09-13T04:49:01.526Z,1996.00
2018-09-13T04:50:01.544Z,2020.00
2018-09-13T04:51:01.580Z,1996.00
2018-09-13T04:52:02.537Z,2008.00
2018-09-13T04:53:01.611Z,2048.00
2018-09-13T04:54:01.652Z,2028.00
2018-09-13T04:55:01.681Z,2040.00
2018-09-13T04:56:01.682Z,2032.00
2018-09-13T04:57:01.793Z,2024.00
2018-09-13T04:58:01.732Z,2036.00
2018-09-13T04:59:01.756Z,2036.00
2018-09-13T05:00:01.779Z,2036.00
2018-09-13T05:01:01.803Z,2036.00
2018-09-13T05:02:01.839Z,2020.00
2018-09-13T05:03:01.862Z,2004.00
2018-09-13T05:04:01.890Z,1960.00
2018-09-13T05:05:02.558Z,1908.00
2018-09-13T05:06:01.930Z,1860.00
2018-09-13T05:07:01.957Z,1776.00
2018-09-13T05:08:01.969Z,1744.00
2018-09-13T05:09:01.996Z,1708.00
2018-09-13T05:10:02.021Z,1720.00
2018-09-13T05:11:02.051Z,1692.00
2018-09-13T05:12:02.063Z,1704.00
2018-09-13T05:13:02.104Z,1724.00
2018-09-13T05:14:02.123Z,1752.00
2018-09-13T05:15:02.127Z,1768.00
2018-09-13T05:16:02.178Z,1828.00
2018-09-13T05:17:02.185Z,1816.00
2018-09-13T05:18:02.205Z,1856.00
2018-09-13T05:19:02.245Z,1876.00
2018-09-13T05:20:02.255Z,1912.00
2018-09-13T05:21:02.277Z,1960.00
2018-09-13T05:22:02.310Z,1956.00
2018-09-13T05:23:02.335Z,1948.00
2018-09-13T05:24:02.348Z,1968.00
2018-09-13T05:25:02.370Z,1952.00
2018-09-13T05:26:02.400Z,1940.00
2018-09-13T05:27:02.416Z,1912.00
2018-09-13T05:28:02.444Z,1892.00
2018-09-13T05:29:02.468Z,1876.00
2018-09-13T05:30:02.524Z,1824.00
2018-09-13T05:31:02.532Z,1808.00
2018-09-13T05:32:02.541Z,1796.00
2018-09-13T05:33:02.565Z,1776.00
2018-09-13T05:34:02.585Z,1808.00
2018-09-13T05:35:02.627Z,1860.00
2018-09-13T05:36:02.650Z,1852.00
2018-09-13T05:37:02.657Z,1908.00
2018-09-13T05:38:02.673Z,1936.00
2018-09-13T05:39:02.695Z,1976.00
2018-09-13T05:40:02.730Z,2016.00
2018-09-13T05:41:02.741Z,2024.00
2018-09-13T05:42:02.766Z,2016.00
2018-09-13T05:43:02.802Z,2016.00
2018-09-13T05:44:02.830Z,1992.00
2018-09-13T05:45:02.853Z,1996.00
2018-09-13T05:46:02.872Z,1992.00
2018-09-13T05:47:02.908Z,2036.00
2018-09-13T05:48:02.939Z,2016.00
2018-09-13T05:49:02.963Z,2004.00
2018-09-13T05:50:02.985Z,2032.00
2018-09-13T05:51:03.070Z,2160.00
2018-09-13T05:52:03.017Z,2228.00
2018-09-13T05:53:03.054Z,2256.00
2018-09-13T05:54:03.076Z,2280.00
2018-09-13T05:55:03.114Z,2296.00
2018-09-13T05:56:03.114Z,2284.00
2018-09-13T05:57:03.140Z,2244.00
2018-09-13T05:58:04.159Z,2348.00
2018-09-13T05:59:03.199Z,2312.00
2018-09-13T06:00:03.220Z,2320.00
2018-09-13T06:01:03.255Z,2288.00
2018-09-13T06:02:03.270Z,2312.00
2018-09-13T06:03:03.282Z,2316.00
2018-09-13T06:04:03.306Z,2336.00
2018-09-13T06:05:03.414Z,2312.00
2018-09-13T06:06:03.373Z,2292.00
2018-09-13T06:07:03.387Z,2248.00
2018-09-13T06:08:03.497Z,2220.00
2018-09-13T06:09:03.425Z,2176.00
2018-09-13T06:10:03.454Z,2152.00
2018-09-13T06:11:03.491Z,2100.00
2018-09-13T06:12:03.509Z,2048.00
2018-09-13T06:13:03.523Z,2028.00
2018-09-13T06:14:03.533Z,2000.00
2018-09-13T06:15:03.562Z,2012.00
2018-09-13T06:16:03.611Z,2012.00
2018-09-13T06:17:03.670Z,2032.00
2018-09-13T06:18:03.653Z,2012.00
2018-09-13T06:19:03.679Z,2008.00
2018-09-13T06:20:03.689Z,1996.00
2018-09-13T06:21:03.730Z,1992.00
2018-09-13T06:22:03.758Z,2000.00
2018-09-13T06:23:03.765Z,1972.00
2018-09-13T06:24:03.801Z,1960.00
2018-09-13T06:25:03.810Z,1960.00
2018-09-13T06:26:03.821Z,1992.00
2018-09-13T06:27:03.858Z,2020.00
2018-09-13T06:28:03.881Z,2036.00
2018-09-13T06:29:03.916Z,2052.00
2018-09-13T06:30:03.929Z,2040.00
2018-09-13T06:31:03.971Z,2060.00
2018-09-13T06:32:03.983Z,2012.00
2018-09-13T06:33:04.001Z,1864.00
2018-09-13T06:34:04.028Z,1760.00
2018-09-13T06:35:04.053Z,1732.00
2018-09-13T06:36:04.075Z,1732.00
2018-09-13T06:37:04.100Z,1760.00
2018-09-13T06:38:04.248Z,1792.00
2018-09-13T06:39:04.151Z,1836.00
2018-09-13T06:40:05.108Z,1872.00
2018-09-13T06:41:04.196Z,1900.00
2018-09-13T06:42:04.269Z,1928.00
2018-09-13T06:43:04.257Z,1952.00
2018-09-13T06:44:04.281Z,1968.00
2018-09-13T06:45:04.304Z,1984.00
2018-09-13T06:46:04.313Z,1992.00
2018-09-13T06:47:04.355Z,2008.00
2018-09-13T06:48:04.377Z,2028.00
2018-09-13T06:49:04.394Z,2060.00
2018-09-13T06:50:04.425Z,2096.00
2018-09-13T06:51:04.424Z,2120.00
2018-09-13T06:52:04.460Z,2156.00
2018-09-13T06:53:04.484Z,2184.00
2018-09-13T06:54:04.583Z,2192.00
2018-09-13T06:55:04.536Z,2176.00
2018-09-13T06:56:04.587Z,2204.00
2018-09-13T06:57:04.591Z,2176.00
2018-09-13T06:58:04.592Z,2136.00
2018-09-13T06:59:04.632Z,2096.00
2018-09-13T07:00:04.684Z,2048.00
2018-09-13T07:01:04.664Z,2024.00
2018-09-13T07:02:04.716Z,2012.00
2018-09-13T07:03:04.725Z,1984.00
2018-09-13T07:04:04.751Z,1968.00
2018-09-13T07:05:04.774Z,1960.00
2018-09-13T07:06:04.819Z,1972.00
2018-09-13T07:07:04.810Z,1972.00
2018-09-13T07:08:04.849Z,1980.00
2018-09-13T07:09:04.939Z,1968.00
2018-09-13T07:10:04.894Z,1948.00
2018-09-13T07:11:04.931Z,1928.00
2018-09-13T07:12:04.960Z,1904.00
2018-09-13T07:13:04.977Z,1892.00
2018-09-13T07:14:04.990Z,1880.00
2018-09-13T07:15:05.005Z,1900.00
2018-09-13T07:16:05.049Z,1848.00
2018-09-13T07:17:05.064Z,1832.00
2018-09-13T07:18:05.105Z,1816.00
2018-09-13T07:19:05.098Z,1808.00
2018-09-13T07:20:05.150Z,1804.00
2018-09-13T07:21:05.158Z,1792.00
2018-09-13T07:22:05.199Z,1760.00
2018-09-13T07:23:05.210Z,1724.00
2018-09-13T07:24:05.248Z,1712.00
2018-09-13T07:25:05.269Z,1676.00
2018-09-13T07:26:05.279Z,1664.00
2018-09-13T07:27:05.310Z,1648.00
2018-09-13T07:28:05.347Z,1672.00
2018-09-13T07:29:05.355Z,1668.00
2018-09-13T07:30:05.379Z,1672.00
2018-09-13T07:31:05.415Z,1664.00
2018-09-13T07:32:05.413Z,1628.00
2018-09-13T07:33:05.459Z,1592.00
2018-09-13T07:34:05.477Z,1560.00
2018-09-13T07:35:05.500Z,1532.00
2018-09-13T07:36:05.522Z,1536.00
2018-09-13T07:37:06.140Z,1500.00
2018-09-13T07:38:05.602Z,1492.00
2018-09-13T07:39:05.664Z,1476.00
2018-09-13T07:40:05.619Z,1460.00
2018-09-13T07:41:05.645Z,1444.00
2018-09-13T07:42:05.670Z,1436.00
2018-09-13T07:43:05.696Z,1424.00
2018-09-13T07:44:05.737Z,1416.00
2018-09-13T07:45:06.647Z,1404.00
2018-09-13T07:46:05.764Z,1396.00
2018-09-13T07:47:05.804Z,1400.00
2018-09-13T07:48:05.825Z,1384.00
2018-09-13T07:49:05.869Z,1376.00
2018-09-13T07:50:05.868Z,1376.00
2018-09-13T07:51:05.898Z,1364.00
2018-09-13T07:52:05.924Z,1368.00
2018-09-13T07:53:05.951Z,1372.00
2018-09-13T07:54:05.955Z,1380.00
2018-09-13T07:55:05.983Z,1364.00
2018-09-13T07:56:06.016Z,1352.00
2018-09-13T07:57:06.042Z,1332.00
2018-09-13T07:58:06.071Z,1368.00
2018-09-13T07:59:06.079Z,1392.00
2018-09-13T08:00:06.104Z,1404.00
2018-09-13T08:01:06.136Z,1412.00
2018-09-13T08:02:06.160Z,1396.00
2018-09-13T08:03:06.179Z,1344.00
2018-09-13T08:04:06.204Z,1288.00
2018-09-13T08:05:06.308Z,1172.00
2018-09-13T08:06:06.248Z,1092.00
2018-09-13T08:07:06.274Z,1048.00
2018-09-13T08:08:06.302Z,1020.00
2018-09-13T08:09:06.307Z,1012.00
2018-09-13T08:10:06.356Z,1008.00
2018-09-13T08:11:06.369Z,1012.00
2018-09-13T08:12:06.520Z,1068.00
2018-09-13T08:13:06.413Z,1120.00
2018-09-13T08:14:06.440Z,1272.00
2018-09-13T08:15:06.478Z,1584.00
2018-09-13T08:16:06.491Z,2068.00
2018-09-13T08:17:06.599Z,2744.00
2018-09-13T08:18:06.534Z,3052.00
2018-09-13T08:19:06.559Z,3100.00
2018-09-13T08:20:06.589Z,3052.00
2018-09-13T08:21:06.660Z,2012.00
2018-09-13T08:22:06.695Z,1436.00
2018-09-13T08:23:06.655Z,1164.00
2018-09-13T08:24:06.698Z,1052.00
2018-09-13T08:25:06.705Z,996.00
2018-09-13T08:26:06.743Z,964.00
2018-09-13T08:27:06.820Z,960.00
2018-09-13T08:28:06.777Z,948.00
2018-09-13T08:29:06.818Z,932.00
2018-09-13T08:30:06.839Z,920.00
2018-09-13T08:31:06.859Z,900.00
2018-09-13T08:32:06.877Z,908.00
2018-09-13T08:33:06.912Z,888.00
2018-09-13T08:34:06.935Z,896.00
2018-09-13T08:35:07.015Z,940.00
2018-09-13T08:36:06.969Z,836.00
2018-09-13T08:37:07.042Z,820.00
2018-09-13T08:38:07.036Z,804.00
2018-09-13T08:39:07.066Z,796.00
2018-09-13T08:40:07.078Z,792.00
2018-09-13T08:41:07.105Z,788.00
2018-09-13T08:42:07.098Z,792.00
2018-09-13T08:43:07.143Z,804.00
2018-09-13T08:44:07.160Z,812.00
2018-09-13T08:45:07.172Z,824.00
2018-09-13T08:46:07.196Z,856.00
2018-09-13T08:47:07.229Z,924.00
2018-09-13T08:48:07.255Z,1016.00
2018-09-13T08:49:07.375Z,984.00
2018-09-13T08:50:07.301Z,924.00
2018-09-13T08:51:07.322Z,916.00
2018-09-13T08:52:07.378Z,924.00
2018-09-13T08:53:07.377Z,964.00
2018-09-13T08:54:07.410Z,1032.00
2018-09-13T08:55:07.472Z,1128.00
2018-09-13T08:56:07.466Z,1272.00
2018-09-13T08:57:07.523Z,1400.00
2018-09-13T08:58:07.499Z,1524.00
2018-09-13T08:59:07.513Z,1660.00
2018-09-13T09:00:07.530Z,1720.00
2018-09-13T09:01:07.555Z,1732.00
2018-09-13T09:02:07.581Z,1732.00
2018-09-13T09:03:07.615Z,1736.00
2018-09-13T09:04:07.624Z,1724.00
2018-09-13T09:05:07.660Z,1708.00
2018-09-13T09:06:07.682Z,1688.00
2018-09-13T09:07:07.679Z,1712.00
2018-09-13T09:08:07.727Z,1788.00
2018-09-13T09:09:07.723Z,1880.00
2018-09-13T09:10:07.753Z,1956.00
2018-09-13T09:11:07.846Z,2020.00
2018-09-13T09:12:07.816Z,2040.00
2018-09-13T09:13:07.848Z,1984.00
2018-09-13T09:14:07.869Z,1692.00
2018-09-13T09:15:08.493Z,1244.00
2018-09-13T09:16:07.900Z,1080.00
2018-09-13T09:17:07.939Z,968.00
2018-09-13T09:18:07.945Z,884.00
2018-09-13T09:19:07.969Z,808.00
2018-09-13T09:20:08.013Z,764.00
2018-09-13T09:21:08.027Z,728.00
2018-09-13T09:22:08.030Z,700.00
2018-09-13T09:23:08.075Z,688.00
2018-09-13T09:24:08.155Z,664.00
2018-09-13T09:25:08.114Z,656.00
2018-09-13T09:26:08.143Z,648.00
2018-09-13T09:27:08.185Z,636.00
2018-09-13T09:28:08.192Z,632.00
2018-09-13T09:29:08.257Z,628.00
2018-09-13T09:30:09.223Z,624.00
2018-09-13T09:31:08.260Z,620.00
2018-09-13T09:32:08.272Z,608.00
2018-09-13T09:33:08.310Z,604.00
2018-09-13T09:34:08.318Z,592.00
2018-09-13T09:35:08.348Z,576.00
2018-09-13T09:36:08.378Z,556.00
2018-09-13T09:37:08.389Z,532.00
2018-09-13T09:38:08.427Z,508.00
2018-09-13T09:39:08.435Z,488.00
2018-09-13T09:40:08.461Z,468.00
2018-09-13T09:41:08.488Z,448.00
2018-09-13T09:42:08.497Z,428.00
2018-09-13T09:43:08.518Z,412.00
2018-09-13T09:44:08.608Z,396.00
2018-09-13T09:45:08.579Z,380.00
2018-09-13T09:46:08.612Z,360.00
2018-09-13T09:47:08.625Z,344.00
2018-09-13T09:48:08.734Z,328.00
2018-09-13T09:49:08.669Z,324.00
2018-09-13T09:50:08.716Z,312.00
2018-09-13T09:51:08.716Z,296.00
2018-09-13T09:52:08.772Z,284.00
2018-09-13T09:53:08.780Z,272.00
2018-09-13T09:54:08.789Z,260.00
2018-09-13T09:55:08.808Z,248.00
2018-09-13T09:56:08.880Z,236.00
2018-09-13T09:57:08.877Z,224.00
2018-09-13T09:58:08.893Z,212.00
2018-09-13T09:59:08.902Z,200.00
2018-09-13T10:00:08.918Z,192.00
2018-09-13T10:01:08.964Z,184.00
2018-09-13T10:02:08.975Z,180.00
2018-09-13T10:03:09.023Z,172.00
2018-09-13T10:04:09.028Z,168.00
2018-09-13T10:05:09.042Z,160.00
2018-09-13T10:06:09.067Z,156.00
2018-09-13T10:07:09.118Z,156.00
2018-09-13T10:08:09.126Z,148.00
2018-09-13T10:09:09.185Z,148.00
2018-09-13T10:10:09.160Z,144.00
2018-09-13T10:11:09.195Z,140.00
2018-09-13T10:12:09.220Z,140.00
2018-09-13T10:13:09.228Z,136.00
2018-09-13T10:14:09.255Z,132.00
2018-09-13T10:15:09.383Z,136.00
2018-09-13T10:16:09.369Z,128.00
2018-09-13T10:17:09.335Z,124.00
2018-09-13T10:18:09.344Z,124.00
2018-09-13T10:19:09.383Z,120.00
2018-09-13T10:20:09.384Z,116.00
2018-09-13T10:21:09.417Z,116.00
2018-09-13T10:22:09.445Z,112.00
2018-09-13T10:23:09.452Z,112.00
2018-09-13T10:24:09.485Z,108.00
2018-09-13T10:25:09.500Z,108.00
2018-09-13T10:26:09.528Z,104.00
2018-09-13T10:27:09.589Z,104.00
2018-09-13T10:28:09.577Z,104.00
2018-09-13T10:29:09.622Z,96.00
2018-09-13T10:30:09.634Z,96.00
2018-09-13T10:31:09.648Z,96.00
2018-09-13T10:32:09.669Z,92.00
2018-09-13T10:33:09.697Z,92.00
2018-09-13T10:34:09.729Z,88.00
2018-09-13T10:35:09.739Z,88.00
2018-09-13T10:36:09.762Z,84.00
2018-09-13T10:37:09.797Z,84.00
2018-09-13T10:38:09.829Z,80.00
2018-09-13T10:39:09.851Z,80.00
2018-09-13T10:40:09.869Z,72.00
2018-09-13T10:41:09.881Z,68.00
2018-09-13T10:42:09.908Z,68.00
2018-09-13T10:43:09.934Z,60.00
2018-09-13T10:44:09.974Z,60.00
2018-09-13T10:45:09.975Z,60.00
2018-09-13T10:46:10.007Z,56.00
2018-09-13T10:47:10.032Z,56.00
2018-09-13T10:48:10.116Z,60.00
2018-09-13T10:49:10.065Z,60.00
2018-09-13T10:50:10.087Z,52.00
2018-09-13T10:51:10.099Z,44.00
2018-09-13T10:52:10.185Z,44.00
2018-09-13T10:53:10.155Z,44.00
2018-09-13T10:54:10.224Z,40.00
2018-09-13T10:55:10.212Z,36.00
2018-09-13T10:56:10.227Z,32.00
2018-09-13T10:57:10.252Z,32.00
2018-09-13T10:58:10.290Z,32.00
2018-09-13T10:59:10.312Z,32.00
2018-09-13T11:00:10.317Z,32.00
2018-09-13T11:01:10.369Z,28.00
2018-09-13T11:02:10.360Z,28.00
2018-09-13T11:03:10.388Z,24.00
2018-09-13T11:04:10.444Z,24.00
2018-09-13T11:05:10.433Z,24.00
2018-09-13T11:06:10.472Z,20.00
2018-09-13T11:07:10.492Z,20.00
2018-09-13T11:08:10.500Z,20.00
2018-09-13T11:09:10.528Z,16.00
2018-09-13T11:10:10.560Z,16.00
2018-09-13T11:11:10.656Z,16.00
2018-09-13T11:12:10.594Z,16.00
2018-09-13T11:13:10.618Z,12.00
2018-09-13T11:15:11.211Z,16.00
2018-09-13T11:16:12.137Z,16.00
2018-09-13T11:17:11.210Z,12.00
2018-09-13T11:18:11.245Z,12.00
2018-09-13T11:19:11.277Z,12.00
2018-09-13T11:20:11.297Z,12.00
2018-09-13T11:21:12.316Z,12.00
2018-09-13T11:22:11.340Z,12.00
2018-09-13T11:23:11.381Z,12.00
2018-09-13T11:24:11.432Z,12.00
2018-09-13T11:25:12.386Z,12.00
2018-09-13T11:26:12.387Z,16.00
2018-09-13T11:27:12.485Z,16.00
2018-09-13T11:28:11.465Z,12.00
2018-09-13T11:29:11.558Z,12.00
2018-09-13T11:30:11.548Z,16.00
2018-09-13T11:31:11.554Z,8.00
2018-09-13T11:32:11.601Z,12.00
2018-09-13T11:33:12.590Z,12.00
2018-09-13T11:34:11.626Z,12.00
2018-09-13T11:35:11.665Z,12.00
2018-09-13T11:36:11.645Z,12.00
2018-09-13T11:37:11.718Z,12.00
2018-09-13T11:38:11.700Z,12.00
2018-09-13T11:39:12.823Z,16.00
2018-09-13T11:40:11.810Z,16.00
2018-09-13T11:41:11.765Z,12.00
2018-09-13T11:42:11.817Z,12.00
2018-09-13T11:43:11.804Z,12.00
2018-09-13T11:44:11.841Z,12.00
2018-09-13T11:45:12.868Z,12.00
2018-09-13T11:46:11.905Z,12.00
2018-09-13T11:47:11.908Z,12.00
2018-09-13T11:48:11.997Z,12.00
2018-09-13T11:49:11.957Z,12.00
2018-09-13T11:50:11.966Z,12.00
2018-09-13T11:51:13.033Z,12.00
2018-09-13T11:52:12.021Z,12.00
2018-09-13T11:53:12.122Z,12.00
2018-09-13T11:54:12.079Z,12.00
2018-09-13T11:55:12.080Z,12.00
2018-09-13T11:56:12.133Z,12.00
2018-09-13T11:57:13.123Z,12.00
2018-09-13T11:58:12.166Z,12.00
2018-09-13T11:59:12.176Z,12.00
2018-09-13T12:00:12.205Z,0.00
2018-09-13T12:01:14.476Z,0.00
2018-09-13T12:02:12.255Z,0.00
2018-09-13T12:03:13.292Z,0.00
2018-09-13T12:04:12.298Z,0.00
2018-09-13T12:05:12.311Z,0.00
2018-09-13T12:06:13.189Z,0.00
2018-09-13T12:07:12.334Z,0.00
2018-09-13T12:08:12.367Z,0.00
2018-09-13T12:09:13.448Z,0.00
2018-09-13T12:10:12.443Z,0.00
2018-09-13T12:11:12.550Z,0.00
2018-09-13T12:12:12.470Z,0.00
2018-09-13T12:13:12.491Z,0.00
2018-09-13T12:14:12.568Z,0.00
2018-09-13T12:15:13.574Z,0.00
2018-09-13T12:16:12.592Z,0.00
2018-09-13T12:17:12.584Z,0.00
2018-09-13T12:18:12.642Z,0.00
2018-09-13T12:19:12.646Z,0.00
2018-09-13T12:20:12.682Z,0.00
2018-09-13T12:21:13.708Z,0.00
2018-09-13T12:22:13.716Z,0.00
2018-09-13T12:23:12.725Z,0.00
2018-09-13T12:24:12.777Z,0.00
2018-09-13T12:25:12.782Z,0.00
2018-09-13T12:26:12.813Z,0.00
2018-09-13T12:27:13.862Z,0.00
2018-09-13T12:28:12.921Z,0.00
2018-09-13T12:29:14.247Z,0.00
2018-09-13T12:30:12.918Z,0.00
2018-09-13T12:31:12.916Z,0.00
2018-09-13T12:32:12.951Z,0.00
2018-09-13T12:33:13.959Z,0.00
2018-09-13T12:34:13.511Z,0.00
2018-09-13T12:35:14.755Z,0.00
2018-09-13T12:36:13.034Z,0.00
2018-09-13T12:37:13.061Z,0.00
2018-09-13T12:38:14.963Z,0.00
2018-09-13T12:39:14.113Z,0.00
2018-09-13T12:40:13.136Z,0.00
2018-09-13T12:41:13.149Z,0.00
2018-09-13T12:42:13.219Z,0.00
2018-09-13T12:43:13.194Z,0.00
2018-09-13T12:44:13.182Z,0.00
2018-09-13T12:45:14.259Z,0.00
2018-09-13T12:46:12.971Z,0.00
2018-09-13T12:47:13.683Z,0.00
2018-09-13T12:48:13.168Z,0.00
2018-09-13T12:49:13.201Z,0.00
2018-09-13T12:50:13.985Z,0.00
2018-09-13T12:51:14.395Z,0.00
2018-09-13T12:52:13.477Z,0.00
2018-09-13T12:53:13.434Z,0.00
2018-09-13T12:54:13.443Z,0.00
2018-09-13T12:55:13.477Z,0.00
2018-09-13T12:56:13.511Z,0.00
2018-09-13T12:57:14.545Z,0.00
2018-09-13T12:58:13.573Z,0.00
2018-09-13T12:59:14.268Z,0.00
2018-09-13T13:00:13.561Z,0.00
2018-09-13T13:01:13.631Z,0.00
2018-09-13T13:02:13.638Z,0.00
2018-09-13T13:03:14.655Z,0.00